sensor_id;sensor_type;location;lat;lon;timestamp;pressure;altitude;pressure_sealevel;temperature;humidity
3102;BME280;1561;42.666;23.392;2024-02-21T00:00:07;95840.66;;;6.31;100.00
3102;BME280;1561;42.666;23.392;2024-02-21T00:02:37;95846.16;;;6.39;100.00
3102;BME280;1561;42.666;23.392;2024-02-21T00:05:11;95838.38;;;6.27;100.00
3102;BME280;1561;42.666;23.392;2024-02-21T00:07:39;95829.63;;;6.32;100.00
3102;BME280;1561;42.666;23.392;2024-02-21T00:10:10;95832.41;;;6.28;100.00
3102;BME280;1561;42.666;23.392;2024-02-21T00:12:38;95833.22;;;6.28;100.00
3102;BME280;1561;42.666;23.392;2024-02-21T00:15:09;95771.97;;;5.89;100.00
3102;BME280;1561;42.666;23.392;2024-02-21T00:17:43;95836.84;;;6.24;100.00
3102;BME280;1561;42.666;23.392;2024-02-21T00:20:15;95835.78;;;6.28;100.00
3102;BME280;1561;42.666;23.392;2024-02-21T00:22:46;95831.50;;;6.13;100.00
3102;BME280;1561;42.666;23.392;2024-02-21T00:25:13;95736.88;;;5.66;100.00
3102;BME280;1561;42.666;23.392;2024-02-21T00:27:46;95842.97;;;6.20;100.00
3102;BME280;1561;42.666;23.392;2024-02-21T00:30:25;95834.44;;;6.21;100.00
3102;BME280;1561;42.666;23.392;2024-02-21T00:32:55;95828.09;;;6.14;100.00
3102;BME280;1561;42.666;23.392;2024-02-21T00:35:28;95832.00;;;6.04;100.00
3102;BME280;1561;42.666;23.392;2024-02-21T00:38:03;95829.66;;;6.17;100.00
3102;BME280;1561;42.666;23.392;2024-02-21T00:40:37;95823.31;;;6.08;100.00
3102;BME280;1561;42.666;23.392;2024-02-21T00:43:06;95817.69;;;6.03;100.00
3102;BME280;1561;42.666;23.392;2024-02-21T00:45:37;95813.59;;;6.16;100.00
3102;BME280;1561;42.666;23.392;2024-02-21T00:48:08;95808.44;;;6.18;100.00
3102;BME280;1561;42.666;23.392;2024-02-21T00:50:39;95708.00;;;5.53;100.00
3102;BME280;1561;42.666;23.392;2024-02-21T00:53:09;95812.47;;;6.22;100.00
3102;BME280;1561;42.666;23.392;2024-02-21T00:55:41;95805.75;;;6.21;100.00
3102;BME280;1561;42.666;23.392;2024-02-21T00:58:11;95807.47;;;6.20;100.00
3102;BME280;1561;42.666;23.392;2024-02-21T01:00:46;95817.81;;;6.31;100.00
3102;BME280;1561;42.666;23.392;2024-02-21T01:03:13;95806.31;;;6.26;100.00
3102;BME280;1561;42.666;23.392;2024-02-21T01:05:48;95803.59;;;6.29;100.00
3102;BME280;1561;42.666;23.392;2024-02-21T01:08:17;95802.53;;;6.33;100.00
3102;BME280;1561;42.666;23.392;2024-02-21T01:10:48;95790.19;;;6.27;100.00
3102;BME280;1561;42.666;23.392;2024-02-21T01:13:27;95800.69;;;6.21;100.00
3102;BME280;1561;42.666;23.392;2024-02-21T01:16:04;95799.59;;;6.25;100.00
3102;BME280;1561;42.666;23.392;2024-02-21T01:18:31;95789.44;;;6.25;100.00
3102;BME280;1561;42.666;23.392;2024-02-21T01:21:08;95802.13;;;6.25;100.00
3102;BME280;1561;42.666;23.392;2024-02-21T01:23:36;95790.94;;;6.13;100.00
3102;BME280;1561;42.666;23.392;2024-02-21T01:26:11;95791.81;;;6.28;100.00
3102;BME280;1561;42.666;23.392;2024-02-21T01:28:41;95795.00;;;6.16;100.00
3102;BME280;1561;42.666;23.392;2024-02-21T01:31:20;95745.56;;;5.93;100.00
3102;BME280;1561;42.666;23.392;2024-02-21T01:33:48;95792.75;;;6.11;100.00
3102;BME280;1561;42.666;23.392;2024-02-21T01:36:18;95784.66;;;6.05;100.00
3102;BME280;1561;42.666;23.392;2024-02-21T01:38:50;95777.69;;;6.08;100.00
3102;BME280;1561;42.666;23.392;2024-02-21T01:41:19;95710.56;;;5.84;100.00
3102;BME280;1561;42.666;23.392;2024-02-21T01:43:49;95769.16;;;6.09;100.00
3102;BME280;1561;42.666;23.392;2024-02-21T01:46:22;95771.47;;;6.14;100.00
3102;BME280;1561;42.666;23.392;2024-02-21T01:48:54;95770.75;;;6.12;100.00
3102;BME280;1561;42.666;23.392;2024-02-21T01:51:23;95785.97;;;6.12;100.00
3102;BME280;1561;42.666;23.392;2024-02-21T01:53:52;95774.34;;;6.08;100.00
3102;BME280;1561;42.666;23.392;2024-02-21T01:56:25;95773.66;;;6.20;100.00
3102;BME280;1561;42.666;23.392;2024-02-21T01:58:58;95771.13;;;6.20;100.00
3102;BME280;1561;42.666;23.392;2024-02-21T02:01:30;95771.13;;;6.20;100.00
3102;BME280;1561;42.666;23.392;2024-02-21T02:03:59;95685.19;;;5.69;100.00
3102;BME280;1561;42.666;23.392;2024-02-21T02:06:30;95769.91;;;6.27;100.00
3102;BME280;1561;42.666;23.392;2024-02-21T02:09:00;95759.50;;;6.16;100.00
3102;BME280;1561;42.666;23.392;2024-02-21T02:11:37;95775.03;;;6.25;100.00
3102;BME280;1561;42.666;23.392;2024-02-21T02:14:05;95773.25;;;6.27;100.00
3102;BME280;1561;42.666;23.392;2024-02-21T02:16:34;95758.03;;;6.27;100.00
3102;BME280;1561;42.666;23.392;2024-02-21T02:19:04;95769.53;;;6.33;100.00
3102;BME280;1561;42.666;23.392;2024-02-21T02:21:45;95755.38;;;6.29;100.00
3102;BME280;1561;42.666;23.392;2024-02-21T02:24:18;95769.16;;;6.40;100.00
3102;BME280;1561;42.666;23.392;2024-02-21T02:26:49;95759.88;;;6.39;100.00
3102;BME280;1561;42.666;23.392;2024-02-21T02:29:20;95764.78;;;6.42;100.00
3102;BME280;1561;42.666;23.392;2024-02-21T02:31:53;95757.34;;;6.39;100.00
3102;BME280;1561;42.666;23.392;2024-02-21T02:34:22;95761.94;;;6.33;100.00
3102;BME280;1561;42.666;23.392;2024-02-21T02:37:00;95761.06;;;6.34;100.00
3102;BME280;1561;42.666;23.392;2024-02-21T02:39:30;95671.06;;;5.65;100.00
3102;BME280;1561;42.666;23.392;2024-02-21T02:42:04;95760.50;;;6.13;100.00
3102;BME280;1561;42.666;23.392;2024-02-21T02:44:34;95738.75;;;5.94;100.00
3102;BME280;1561;42.666;23.392;2024-02-21T02:47:09;95760.69;;;6.10;100.00
3102;BME280;1561;42.666;23.392;2024-02-21T02:49:39;95759.28;;;6.05;100.00
3102;BME280;1561;42.666;23.392;2024-02-21T02:52:11;95742.03;;;6.11;100.00
3102;BME280;1561;42.666;23.392;2024-02-21T02:54:48;95764.69;;;6.14;100.00
3102;BME280;1561;42.666;23.392;2024-02-21T02:57:17;95766.03;;;6.20;100.00
3102;BME280;1561;42.666;23.392;2024-02-21T02:59:47;95747.72;;;6.15;100.00
3102;BME280;1561;42.666;23.392;2024-02-21T03:02:17;95752.63;;;6.18;100.00
3102;BME280;1561;42.666;23.392;2024-02-21T03:04:44;95756.56;;;6.23;100.00
3102;BME280;1561;42.666;23.392;2024-02-21T03:07:20;95719.75;;;6.16;100.00
3102;BME280;1561;42.666;23.392;2024-02-21T03:09:54;95759.03;;;6.54;100.00
3102;BME280;1561;42.666;23.392;2024-02-21T03:12:26;95765.91;;;6.52;100.00
3102;BME280;1561;42.666;23.392;2024-02-21T03:14:56;95622.09;;;5.49;100.00
3102;BME280;1561;42.666;23.392;2024-02-21T03:17:28;95773.75;;;6.34;100.00
3102;BME280;1561;42.666;23.392;2024-02-21T03:20:00;95779.69;;;6.33;100.00
3102;BME280;1561;42.666;23.392;2024-02-21T03:22:32;95777.59;;;6.25;100.00
3102;BME280;1561;42.666;23.392;2024-02-21T03:25:13;95785.31;;;6.38;100.00
3102;BME280;1561;42.666;23.392;2024-02-21T03:27:44;95774.47;;;6.36;100.00
3102;BME280;1561;42.666;23.392;2024-02-21T03:30:16;95767.03;;;6.17;100.00
3102;BME280;1561;42.666;23.392;2024-02-21T03:32:47;95761.97;;;6.17;100.00
3102;BME280;1561;42.666;23.392;2024-02-21T03:35:15;95778.81;;;6.34;100.00
3102;BME280;1561;42.666;23.392;2024-02-21T03:37:45;95783.28;;;6.29;100.00
3102;BME280;1561;42.666;23.392;2024-02-21T03:40:32;95784.44;;;6.39;100.00
3102;BME280;1561;42.666;23.392;2024-02-21T03:43:06;95797.13;;;6.39;100.00
3102;BME280;1561;42.666;23.392;2024-02-21T03:45:40;95798.13;;;6.36;100.00
3102;BME280;1561;42.666;23.392;2024-02-21T03:48:14;95767.94;;;6.16;100.00
3102;BME280;1561;42.666;23.392;2024-02-21T03:50:42;95802.94;;;6.41;100.00
3102;BME280;1561;42.666;23.392;2024-02-21T03:53:18;95798.75;;;6.40;100.00
3102;BME280;1561;42.666;23.392;2024-02-21T03:56:01;95778.00;;;6.18;100.00
3102;BME280;1561;42.666;23.392;2024-02-21T03:58:37;95795.41;;;6.39;100.00
3102;BME280;1561;42.666;23.392;2024-02-21T04:01:14;95792.88;;;6.24;100.00
3102;BME280;1561;42.666;23.392;2024-02-21T04:03:44;95687.97;;;5.64;100.00
3102;BME280;1561;42.666;23.392;2024-02-21T04:06:15;95793.94;;;6.35;100.00
3102;BME280;1561;42.666;23.392;2024-02-21T04:08:54;95786.91;;;6.25;100.00
3102;BME280;1561;42.666;23.392;2024-02-21T04:11:27;95779.13;;;6.28;100.00
3102;BME280;1561;42.666;23.392;2024-02-21T04:13:57;95781.94;;;6.23;100.00
3102;BME280;1561;42.666;23.392;2024-02-21T04:16:26;95758.47;;;6.04;100.00
3102;BME280;1561;42.666;23.392;2024-02-21T04:19:10;95608.09;;;5.12;100.00
3102;BME280;1561;42.666;23.392;2024-02-21T04:21:49;95804.66;;;6.25;100.00
3102;BME280;1561;42.666;23.392;2024-02-21T04:24:21;95772.94;;;6.18;100.00
3102;BME280;1561;42.666;23.392;2024-02-21T04:27:13;95784.78;;;6.02;100.00
3102;BME280;1561;42.666;23.392;2024-02-21T04:29:41;95785.69;;;6.16;100.00
3102;BME280;1561;42.666;23.392;2024-02-21T04:32:28;95601.13;;;5.00;100.00
3102;BME280;1561;42.666;23.392;2024-02-21T04:37:58;95786.34;;;6.20;100.00
3102;BME280;1561;42.666;23.392;2024-02-21T04:40:49;95787.88;;;6.22;100.00
3102;BME280;1561;42.666;23.392;2024-02-21T04:43:35;95773.03;;;5.85;100.00
3102;BME280;1561;42.666;23.392;2024-02-21T04:46:06;95780.97;;;6.10;100.00
3102;BME280;1561;42.666;23.392;2024-02-21T04:48:33;95793.31;;;6.16;100.00
3102;BME280;1561;42.666;23.392;2024-02-21T04:51:07;95796.16;;;6.26;100.00
3102;BME280;1561;42.666;23.392;2024-02-21T04:53:40;95786.59;;;6.31;100.00
3102;BME280;1561;42.666;23.392;2024-02-21T04:56:15;95799.44;;;6.28;100.00
3102;BME280;1561;42.666;23.392;2024-02-21T04:58:52;95786.91;;;6.09;100.00
3102;BME280;1561;42.666;23.392;2024-02-21T05:01:20;95788.88;;;6.04;100.00
3102;BME280;1561;42.666;23.392;2024-02-21T05:03:49;95798.66;;;6.12;100.00
3102;BME280;1561;42.666;23.392;2024-02-21T05:06:23;95793.44;;;6.29;100.00
3102;BME280;1561;42.666;23.392;2024-02-21T05:09:06;95792.66;;;6.28;100.00
3102;BME280;1561;42.666;23.392;2024-02-21T05:11:34;95797.06;;;6.09;100.00
3102;BME280;1561;42.666;23.392;2024-02-21T05:14:09;95803.53;;;6.15;100.00
3102;BME280;1561;42.666;23.392;2024-02-21T05:16:39;95803.84;;;6.24;100.00
3102;BME280;1561;42.666;23.392;2024-02-21T05:19:15;95805.56;;;6.24;100.00
3102;BME280;1561;42.666;23.392;2024-02-21T05:21:44;95804.00;;;6.21;100.00
3102;BME280;1561;42.666;23.392;2024-02-21T05:24:14;95785.38;;;6.07;100.00
3102;BME280;1561;42.666;23.392;2024-02-21T05:26:45;95804.50;;;6.28;100.00
3102;BME280;1561;42.666;23.392;2024-02-21T05:32:23;95805.50;;;6.25;100.00
3102;BME280;1561;42.666;23.392;2024-02-21T05:34:55;95808.69;;;6.13;100.00
3102;BME280;1561;42.666;23.392;2024-02-21T05:37:45;95812.13;;;5.97;100.00
3102;BME280;1561;42.666;23.392;2024-02-21T05:40:15;95807.97;;;5.96;100.00
3102;BME280;1561;42.666;23.392;2024-02-21T05:42:42;95807.53;;;6.03;100.00
3102;BME280;1561;42.666;23.392;2024-02-21T05:45:29;95781.94;;;5.77;100.00
3102;BME280;1561;42.666;23.392;2024-02-21T05:48:03;95802.28;;;5.75;100.00
3102;BME280;1561;42.666;23.392;2024-02-21T05:50:35;95810.66;;;5.93;100.00
3102;BME280;1561;42.666;23.392;2024-02-21T05:53:07;95791.69;;;5.84;100.00
3102;BME280;1561;42.666;23.392;2024-02-21T05:55:44;95832.91;;;6.03;100.00
3102;BME280;1561;42.666;23.392;2024-02-21T05:58:26;95760.47;;;5.67;100.00
3102;BME280;1561;42.666;23.392;2024-02-21T06:01:00;95801.81;;;5.84;100.00
3102;BME280;1561;42.666;23.392;2024-02-21T06:03:50;95817.25;;;6.26;100.00
3102;BME280;1561;42.666;23.392;2024-02-21T06:06:17;95797.97;;;5.93;100.00
3102;BME280;1561;42.666;23.392;2024-02-21T06:08:57;95820.44;;;6.45;100.00
3102;BME280;1561;42.666;23.392;2024-02-21T06:11:29;95798.75;;;6.40;100.00
3102;BME280;1561;42.666;23.392;2024-02-21T06:13:58;95833.19;;;6.59;100.00
3102;BME280;1561;42.666;23.392;2024-02-21T06:16:35;95837.19;;;6.63;100.00
3102;BME280;1561;42.666;23.392;2024-02-21T06:19:07;95834.75;;;6.62;100.00
3102;BME280;1561;42.666;23.392;2024-02-21T06:21:38;95841.59;;;7.05;100.00
3102;BME280;1561;42.666;23.392;2024-02-21T06:24:07;95827.94;;;6.62;100.00
3102;BME280;1561;42.666;23.392;2024-02-21T06:26:45;95851.44;;;6.66;100.00
3102;BME280;1561;42.666;23.392;2024-02-21T06:29:58;95859.47;;;6.74;100.00
3102;BME280;1561;42.666;23.392;2024-02-21T06:32:27;95758.34;;;6.21;100.00
3102;BME280;1561;42.666;23.392;2024-02-21T06:35:08;95791.13;;;6.55;100.00
3102;BME280;1561;42.666;23.392;2024-02-21T06:37:40;95847.72;;;7.30;100.00
3102;BME280;1561;42.666;23.392;2024-02-21T06:40:20;95807.81;;;6.89;100.00
3102;BME280;1561;42.666;23.392;2024-02-21T06:42:48;95866.25;;;7.46;100.00
3102;BME280;1561;42.666;23.392;2024-02-21T06:45:33;95846.25;;;6.83;100.00
3102;BME280;1561;42.666;23.392;2024-02-21T06:48:13;95872.13;;;6.89;100.00
3102;BME280;1561;42.666;23.392;2024-02-21T06:50:58;95869.22;;;7.53;100.00
3102;BME280;1561;42.666;23.392;2024-02-21T06:53:26;95876.31;;;8.18;100.00
3102;BME280;1561;42.666;23.392;2024-02-21T06:55:57;95872.50;;;7.97;100.00
3102;BME280;1561;42.666;23.392;2024-02-21T06:58:32;95882.31;;;8.17;100.00
3102;BME280;1561;42.666;23.392;2024-02-21T07:01:07;95881.97;;;8.23;100.00
3102;BME280;1561;42.666;23.392;2024-02-21T07:03:35;95879.91;;;7.73;100.00
3102;BME280;1561;42.666;23.392;2024-02-21T07:06:12;95885.88;;;7.15;100.00
3102;BME280;1561;42.666;23.392;2024-02-21T07:08:51;95881.81;;;7.84;100.00
3102;BME280;1561;42.666;23.392;2024-02-21T07:11:22;95877.44;;;7.72;100.00
3102;BME280;1561;42.666;23.392;2024-02-21T07:13:53;95879.34;;;7.68;100.00
3102;BME280;1561;42.666;23.392;2024-02-21T07:16:26;95885.69;;;7.75;100.00
3102;BME280;1561;42.666;23.392;2024-02-21T07:18:56;95886.06;;;7.83;100.00
3102;BME280;1561;42.666;23.392;2024-02-21T07:21:35;95886.31;;;7.65;100.00
3102;BME280;1561;42.666;23.392;2024-02-21T07:24:13;95892.56;;;7.45;100.00
3102;BME280;1561;42.666;23.392;2024-02-21T07:26:43;95878.81;;;7.91;100.00
3102;BME280;1561;42.666;23.392;2024-02-21T07:29:12;95889.25;;;7.73;100.00
3102;BME280;1561;42.666;23.392;2024-02-21T07:31:42;95862.25;;;7.84;100.00
3102;BME280;1561;42.666;23.392;2024-02-21T07:34:12;95889.50;;;8.10;100.00
3102;BME280;1561;42.666;23.392;2024-02-21T07:36:49;95889.31;;;8.13;100.00
3102;BME280;1561;42.666;23.392;2024-02-21T07:39:19;95709.66;;;7.30;100.00
3102;BME280;1561;42.666;23.392;2024-02-21T07:41:50;95852.81;;;8.00;100.00
3102;BME280;1561;42.666;23.392;2024-02-21T07:44:23;95883.69;;;8.63;100.00
3102;BME280;1561;42.666;23.392;2024-02-21T07:46:56;95895.38;;;8.53;100.00
3102;BME280;1561;42.666;23.392;2024-02-21T07:49:25;95853.53;;;8.57;100.00
3102;BME280;1561;42.666;23.392;2024-02-21T07:52:02;95874.66;;;8.45;100.00
3102;BME280;1561;42.666;23.392;2024-02-21T07:54:30;95884.31;;;8.40;100.00
3102;BME280;1561;42.666;23.392;2024-02-21T07:56:58;95849.78;;;8.62;100.00
3102;BME280;1561;42.666;23.392;2024-02-21T07:59:27;95835.63;;;9.10;100.00
3102;BME280;1561;42.666;23.392;2024-02-21T08:01:56;95865.69;;;9.05;100.00
3102;BME280;1561;42.666;23.392;2024-02-21T08:04:26;95869.88;;;9.18;100.00
3102;BME280;1561;42.666;23.392;2024-02-21T08:06:57;95881.47;;;9.37;100.00
3102;BME280;1561;42.666;23.392;2024-02-21T08:09:29;95851.56;;;9.26;100.00
3102;BME280;1561;42.666;23.392;2024-02-21T08:12:06;95877.56;;;9.94;100.00
3102;BME280;1561;42.666;23.392;2024-02-21T08:14:38;95875.47;;;10.13;100.00
3102;BME280;1561;42.666;23.392;2024-02-21T08:17:09;95869.03;;;9.95;100.00
3102;BME280;1561;42.666;23.392;2024-02-21T08:19:37;95885.16;;;9.83;100.00
3102;BME280;1561;42.666;23.392;2024-02-21T08:22:09;95883.72;;;10.16;100.00
3102;BME280;1561;42.666;23.392;2024-02-21T08:24:39;95878.94;;;10.12;100.00
3102;BME280;1561;42.666;23.392;2024-02-21T08:27:06;95881.38;;;9.88;100.00
3102;BME280;1561;42.666;23.392;2024-02-21T08:29:35;95879.84;;;9.98;100.00
3102;BME280;1561;42.666;23.392;2024-02-21T08:32:08;95875.88;;;10.79;100.00
3102;BME280;1561;42.666;23.392;2024-02-21T08:34:39;95872.00;;;10.73;100.00
3102;BME280;1561;42.666;23.392;2024-02-21T08:37:10;95795.81;;;10.44;100.00
3102;BME280;1561;42.666;23.392;2024-02-21T08:39:38;95877.84;;;10.39;100.00
3102;BME280;1561;42.666;23.392;2024-02-21T08:42:09;95867.94;;;10.71;100.00
3102;BME280;1561;42.666;23.392;2024-02-21T08:44:57;95868.78;;;11.40;100.00
3102;BME280;1561;42.666;23.392;2024-02-21T08:47:25;95868.19;;;12.15;100.00
3102;BME280;1561;42.666;23.392;2024-02-21T08:49:53;95846.75;;;11.94;100.00
3102;BME280;1561;42.666;23.392;2024-02-21T08:52:23;95862.84;;;10.82;100.00
3102;BME280;1561;42.666;23.392;2024-02-21T08:54:52;95862.75;;;10.83;100.00
3102;BME280;1561;42.666;23.392;2024-02-21T08:57:20;95872.22;;;11.28;100.00
3102;BME280;1561;42.666;23.392;2024-02-21T08:59:48;95862.75;;;10.60;100.00
3102;BME280;1561;42.666;23.392;2024-02-21T09:02:18;95774.66;;;10.42;100.00
3102;BME280;1561;42.666;23.392;2024-02-21T09:04:49;95870.84;;;11.24;100.00
3102;BME280;1561;42.666;23.392;2024-02-21T09:07:18;95874.88;;;10.92;100.00
3102;BME280;1561;42.666;23.392;2024-02-21T09:09:57;95867.56;;;11.22;100.00
3102;BME280;1561;42.666;23.392;2024-02-21T09:12:24;95866.41;;;11.26;100.00
3102;BME280;1561;42.666;23.392;2024-02-21T09:14:53;95877.88;;;11.10;100.00
3102;BME280;1561;42.666;23.392;2024-02-21T09:17:23;95869.22;;;10.53;100.00
3102;BME280;1561;42.666;23.392;2024-02-21T09:19:57;95878.34;;;11.15;100.00
3102;BME280;1561;42.666;23.392;2024-02-21T09:22:28;95870.25;;;10.97;100.00
3102;BME280;1561;42.666;23.392;2024-02-21T09:25:01;95862.06;;;11.16;100.00
3102;BME280;1561;42.666;23.392;2024-02-21T09:27:31;95864.16;;;11.11;100.00
3102;BME280;1561;42.666;23.392;2024-02-21T09:30:04;95858.38;;;11.76;100.00
3102;BME280;1561;42.666;23.392;2024-02-21T09:32:32;95867.53;;;11.57;100.00
3102;BME280;1561;42.666;23.392;2024-02-21T09:35:03;95860.53;;;11.48;100.00
3102;BME280;1561;42.666;23.392;2024-02-21T09:37:32;95837.94;;;10.96;100.00
3102;BME280;1561;42.666;23.392;2024-02-21T09:40:04;95875.53;;;10.83;100.00
3102;BME280;1561;42.666;23.392;2024-02-21T09:42:38;95870.03;;;11.00;100.00
3102;BME280;1561;42.666;23.392;2024-02-21T09:45:09;95863.69;;;11.17;100.00
3102;BME280;1561;42.666;23.392;2024-02-21T09:48:07;95870.56;;;11.16;100.00
3102;BME280;1561;42.666;23.392;2024-02-21T09:50:36;95861.16;;;11.62;100.00
3102;BME280;1561;42.666;23.392;2024-02-21T09:53:07;95857.25;;;12.13;100.00
3102;BME280;1561;42.666;23.392;2024-02-21T09:55:41;95850.81;;;12.30;100.00
3102;BME280;1561;42.666;23.392;2024-02-21T09:58:11;95864.69;;;12.05;100.00
3102;BME280;1561;42.666;23.392;2024-02-21T10:00:42;95855.63;;;11.68;100.00
3102;BME280;1561;42.666;23.392;2024-02-21T10:03:15;95859.09;;;12.44;100.00
3102;BME280;1561;42.666;23.392;2024-02-21T10:05:49;95849.47;;;12.15;100.00
3102;BME280;1561;42.666;23.392;2024-02-21T10:08:21;95858.41;;;12.20;100.00
3102;BME280;1561;42.666;23.392;2024-02-21T10:10:51;95765.97;;;11.35;100.00
3102;BME280;1561;42.666;23.392;2024-02-21T10:13:26;95850.28;;;12.69;100.00
3102;BME280;1561;42.666;23.392;2024-02-21T10:16:07;95835.25;;;12.64;100.00
3102;BME280;1561;42.666;23.392;2024-02-21T10:18:39;95846.69;;;11.50;100.00
3102;BME280;1561;42.666;23.392;2024-02-21T10:21:08;95844.31;;;12.04;100.00
3102;BME280;1561;42.666;23.392;2024-02-21T10:23:48;95832.25;;;12.06;100.00
3102;BME280;1561;42.666;23.392;2024-02-21T10:26:18;95834.03;;;12.48;100.00
3102;BME280;1561;42.666;23.392;2024-02-21T10:28:54;95827.88;;;12.28;100.00
3102;BME280;1561;42.666;23.392;2024-02-21T10:31:25;95819.34;;;12.81;100.00
3102;BME280;1561;42.666;23.392;2024-02-21T10:33:54;95827.06;;;12.28;100.00
3102;BME280;1561;42.666;23.392;2024-02-21T10:36:22;95811.25;;;12.23;100.00
3102;BME280;1561;42.666;23.392;2024-02-21T10:39:03;95818.16;;;12.00;100.00
3102;BME280;1561;42.666;23.392;2024-02-21T10:41:39;95812.56;;;11.95;100.00
3102;BME280;1561;42.666;23.392;2024-02-21T10:44:10;95795.91;;;13.17;95.54
3102;BME280;1561;42.666;23.392;2024-02-21T10:46:43;95788.94;;;14.49;84.49
3102;BME280;1561;42.666;23.392;2024-02-21T10:49:19;95785.28;;;15.83;72.32
3102;BME280;1561;42.666;23.392;2024-02-21T10:51:55;95763.47;;;14.84;73.97
3102;BME280;1561;42.666;23.392;2024-02-21T10:54:41;95760.09;;;15.12;71.83
3102;BME280;1561;42.666;23.392;2024-02-21T10:57:14;95784.84;;;15.51;70.01
3102;BME280;1561;42.666;23.392;2024-02-21T10:59:46;95775.94;;;14.88;74.08
3102;BME280;1561;42.666;23.392;2024-02-21T11:02:19;95767.66;;;14.94;74.23
3102;BME280;1561;42.666;23.392;2024-02-21T11:04:50;95683.72;;;14.84;72.43
3102;BME280;1561;42.666;23.392;2024-02-21T11:07:19;95765.59;;;15.45;70.72
3102;BME280;1561;42.666;23.392;2024-02-21T11:09:51;95753.16;;;15.12;70.33
3102;BME280;1561;42.666;23.392;2024-02-21T11:12:25;95752.97;;;16.95;65.33
3102;BME280;1561;42.666;23.392;2024-02-21T11:14:54;95752.16;;;15.51;68.30
3102;BME280;1561;42.666;23.392;2024-02-21T11:17:32;95747.22;;;15.67;69.52
3102;BME280;1561;42.666;23.392;2024-02-21T11:20:11;95662.91;;;13.22;75.90
3102;BME280;1561;42.666;23.392;2024-02-21T11:22:42;95731.38;;;14.97;74.51
3102;BME280;1561;42.666;23.392;2024-02-21T11:25:21;95743.38;;;16.08;63.20
3102;BME280;1561;42.666;23.392;2024-02-21T11:28:05;95739.84;;;16.89;57.52
3102;BME280;1561;42.666;23.392;2024-02-21T11:30:38;95738.44;;;15.60;58.85
3102;BME280;1561;42.666;23.392;2024-02-21T11:33:09;95652.81;;;13.60;63.50
3102;BME280;1561;42.666;23.392;2024-02-21T11:35:41;95734.25;;;14.47;63.54
3102;BME280;1561;42.666;23.392;2024-02-21T11:38:13;95727.44;;;16.39;54.69
3102;BME280;1561;42.666;23.392;2024-02-21T11:40:43;95712.84;;;16.30;53.17
3102;BME280;1561;42.666;23.392;2024-02-21T11:43:15;95724.47;;;15.63;54.36
3102;BME280;1561;42.666;23.392;2024-02-21T11:45:43;95720.44;;;14.48;58.33
3102;BME280;1561;42.666;23.392;2024-02-21T11:48:19;95634.34;;;13.85;61.40
3102;BME280;1561;42.666;23.392;2024-02-21T11:50:53;95717.88;;;12.99;66.72
3102;BME280;1561;42.666;23.392;2024-02-21T11:53:22;95714.34;;;13.81;67.30
3102;BME280;1561;42.666;23.392;2024-02-21T11:55:56;95693.53;;;12.73;72.61
3102;BME280;1561;42.666;23.392;2024-02-21T11:58:27;95719.00;;;13.27;71.48
3102;BME280;1561;42.666;23.392;2024-02-21T12:00:58;95714.31;;;13.11;73.38
3102;BME280;1561;42.666;23.392;2024-02-21T12:03:26;95720.13;;;13.34;72.17
3102;BME280;1561;42.666;23.392;2024-02-21T12:05:55;95713.91;;;12.23;80.24
3102;BME280;1561;42.666;23.392;2024-02-21T12:08:25;95720.13;;;12.41;81.66
3102;BME280;1561;42.666;23.392;2024-02-21T12:10:58;95716.50;;;12.12;85.60
3102;BME280;1561;42.666;23.392;2024-02-21T12:13:28;95712.75;;;12.99;82.46
3102;BME280;1561;42.666;23.392;2024-02-21T12:15:56;95712.28;;;12.53;82.46
3102;BME280;1561;42.666;23.392;2024-02-21T12:18:24;95716.22;;;12.26;82.51
3102;BME280;1561;42.666;23.392;2024-02-21T12:20:53;95675.81;;;12.29;81.10
3102;BME280;1561;42.666;23.392;2024-02-21T12:23:22;95704.03;;;11.76;85.91
3102;BME280;1561;42.666;23.392;2024-02-21T12:25:53;95594.34;;;11.49;85.50
3102;BME280;1561;42.666;23.392;2024-02-21T12:28:22;95689.03;;;11.60;91.18
3102;BME280;1561;42.666;23.392;2024-02-21T12:30:53;95708.16;;;11.99;93.00
3102;BME280;1561;42.666;23.392;2024-02-21T12:33:22;95703.38;;;11.94;95.17
3102;BME280;1561;42.666;23.392;2024-02-21T12:35:50;95703.78;;;11.46;100.00
3102;BME280;1561;42.666;23.392;2024-02-21T12:38:25;95701.22;;;11.24;100.00
3102;BME280;1561;42.666;23.392;2024-02-21T12:40:55;95679.72;;;11.26;100.00
3102;BME280;1561;42.666;23.392;2024-02-21T12:43:23;95688.41;;;11.35;100.00
3102;BME280;1561;42.666;23.392;2024-02-21T12:45:55;95657.63;;;11.14;100.00
3102;BME280;1561;42.666;23.392;2024-02-21T12:48:28;95694.84;;;11.29;100.00
3102;BME280;1561;42.666;23.392;2024-02-21T12:50:58;95685.06;;;11.56;97.88
3102;BME280;1561;42.666;23.392;2024-02-21T12:53:26;95696.34;;;11.54;95.45
3102;BME280;1561;42.666;23.392;2024-02-21T12:55:58;95688.66;;;11.65;93.25
3102;BME280;1561;42.666;23.392;2024-02-21T12:58:25;95691.13;;;11.77;90.91
3102;BME280;1561;42.666;23.392;2024-02-21T13:01:02;95680.63;;;11.36;93.63
3102;BME280;1561;42.666;23.392;2024-02-21T13:03:30;95686.91;;;11.76;92.28
3102;BME280;1561;42.666;23.392;2024-02-21T13:06:06;95684.94;;;11.58;93.20
3102;BME280;1561;42.666;23.392;2024-02-21T13:08:37;95681.47;;;11.15;100.00
3102;BME280;1561;42.666;23.392;2024-02-21T13:11:07;95676.81;;;11.09;100.00
3102;BME280;1561;42.666;23.392;2024-02-21T13:13:34;95664.25;;;11.06;100.00
3102;BME280;1561;42.666;23.392;2024-02-21T13:16:05;95603.38;;;10.89;100.00
3102;BME280;1561;42.666;23.392;2024-02-21T13:18:40;95661.25;;;11.23;100.00
3102;BME280;1561;42.666;23.392;2024-02-21T13:21:10;95674.25;;;10.98;100.00
3102;BME280;1561;42.666;23.392;2024-02-21T13:23:37;95671.56;;;11.10;100.00
3102;BME280;1561;42.666;23.392;2024-02-21T13:26:15;95674.25;;;11.20;100.00
3102;BME280;1561;42.666;23.392;2024-02-21T13:28:44;95515.41;;;10.25;100.00
3102;BME280;1561;42.666;23.392;2024-02-21T13:31:37;95664.47;;;11.25;100.00
3102;BME280;1561;42.666;23.392;2024-02-21T13:34:09;95630.88;;;10.96;100.00
3102;BME280;1561;42.666;23.392;2024-02-21T13:36:46;95660.63;;;11.41;100.00
3102;BME280;1561;42.666;23.392;2024-02-21T13:39:25;95665.66;;;11.21;100.00
3102;BME280;1561;42.666;23.392;2024-02-21T13:41:55;95664.22;;;10.95;100.00